Time;durP1;ratioP1;P1;durP2;ratioP2;P2;SDS_P1;SDS_P2;PMS_P1;PMS_P2;Temp;Humidity;BMP_temperature;BMP_pressure;BME280_temperature;BME280_humidity;BME280_pressure;Samples;Min_cycle;Max_cycle;Signal;HPM_P1;HPM_P2
2021/05/31 00:01:09;;;;;;;2.30;2.20;;;11.20;96.20;;;;;;5043584;28;20191;-72
2021/05/31 00:03:35;;;;;;;4.88;2.08;;;11.20;96.30;;;;;;5050815;28;20187;-73
2021/05/31 00:06:00;;;;;;;1.92;1.92;;;11.20;96.30;;;;;;5052233;28;20682;-72
2021/05/31 00:08:26;;;;;;;2.03;1.92;;;11.20;96.30;;;;;;5046491;28;20656;-72
2021/05/31 00:10:52;;;;;;;1.95;1.75;;;11.20;96.40;;;;;;5050931;28;20188;-72
2021/05/31 00:13:18;;;;;;;2.42;2.28;;;11.20;96.20;;;;;;5046550;28;20195;-72
2021/05/31 00:15:44;;;;;;;1.70;1.67;;;11.20;96.20;;;;;;5040142;28;21282;-72
2021/05/31 00:18:10;;;;;;;2.53;2.42;;;11.20;96.30;;;;;;5044322;28;20187;-72
2021/05/31 00:20:36;;;;;;;2.20;1.75;;;11.30;96.40;;;;;;5045844;28;20216;-72
2021/05/31 00:23:02;;;;;;;1.83;1.73;;;11.20;96.40;;;;;;5045785;28;20583;-73
2021/05/31 00:25:28;;;;;;;1.65;1.63;;;11.30;96.60;;;;;;5036283;28;20224;-72
2021/05/31 00:27:53;;;;;;;2.00;1.90;;;11.30;96.60;;;;;;5049373;28;20587;-72
2021/05/31 00:30:22;;;;;;;2.33;2.03;;;11.30;96.60;;;;;;5041240;28;20211;-72
2021/05/31 00:32:49;;;;;;;2.53;2.42;;;11.20;96.60;;;;;;5059563;28;20728;-72
2021/05/31 00:35:15;;;;;;;1.90;1.90;;;11.30;96.60;;;;;;5048481;28;20641;-73
2021/05/31 00:37:41;;;;;;;3.03;2.20;;;11.30;96.60;;;;;;5050006;28;20187;-73
2021/05/31 00:40:10;;;;;;;1.70;1.70;;;11.30;96.60;;;;;;5051391;28;20195;-72
2021/05/31 00:42:37;;;;;;;2.40;2.20;;;11.20;96.70;;;;;;5051885;28;20192;-73
2021/05/31 00:45:05;;;;;;;2.17;2.08;;;11.20;96.70;;;;;;5046539;28;20218;-72
2021/05/31 00:47:31;;;;;;;1.85;1.75;;;11.20;96.70;;;;;;5052180;28;20180;-72
2021/05/31 00:49:57;;;;;;;1.60;1.60;;;11.20;96.60;;;;;;5042645;28;20199;-72
2021/05/31 00:52:24;;;;;;;1.65;1.65;;;11.20;96.80;;;;;;5047906;28;20906;-72
2021/05/31 00:54:50;;;;;;;2.10;2.10;;;11.20;96.70;;;;;;5047108;28;20188;-73
2021/05/31 00:57:16;;;;;;;1.92;1.83;;;11.10;96.80;;;;;;5046330;28;20187;-72
2021/05/31 00:59:42;;;;;;;1.88;1.77;;;11.10;96.60;;;;;;5046537;28;20188;-72
2021/05/31 01:02:08;;;;;;;2.28;2.17;;;11.10;96.80;;;;;;5053501;28;20188;-72
2021/05/31 01:04:34;;;;;;;2.03;1.98;;;11.10;96.80;;;;;;5041556;28;20215;-72
2021/05/31 01:07:07;;;;;;;2.10;2.10;;;11.10;96.80;;;;;;5043995;28;20194;-72
2021/05/31 01:09:45;;;;;;;2.55;2.00;;;11.10;96.80;;;;;;5052602;28;20625;-71
2021/05/31 01:12:23;;;;;;;1.90;1.80;;;11.10;96.60;;;;;;5057323;28;20210;-72
2021/05/31 01:15:18;;;;;;;2.17;2.08;;;11.10;97.00;;;;;;5047753;28;20583;-72
2021/05/31 01:17:50;;;;;;;1.75;1.75;;;11.10;96.50;;;;;;5057341;28;20184;-72
2021/05/31 01:20:35;;;;;;;1.77;1.73;;;11.10;96.70;;;;;;5046565;28;20184;-72
2021/05/31 01:23:07;;;;;;;1.60;1.60;;;11.00;96.70;;;;;;5058424;28;20191;-72
2021/05/31 01:25:38;;;;;;;2.00;1.90;;;11.00;96.60;;;;;;5048906;28;20228;-72
2021/05/31 01:28:26;;;;;;;2.08;1.98;;;11.00;97.00;;;;;;5050737;28;20550;-72
2021/05/31 01:30:53;;;;;;;1.88;1.88;;;11.00;97.00;;;;;;5046273;28;20419;-73
2021/05/31 01:33:22;;;;;;;1.95;1.92;;;11.00;97.00;;;;;;5045962;28;20175;-71
2021/05/31 01:35:50;;;;;;;2.17;2.08;;;11.00;97.00;;;;;;5048737;28;20187;-72
2021/05/31 01:38:21;;;;;;;1.80;1.80;;;11.00;97.00;;;;;;5050239;28;20214;-71
2021/05/31 01:40:47;;;;;;;3.50;1.58;;;11.00;97.00;;;;;;5055008;28;20175;-71
2021/05/31 01:43:15;;;;;;;2.10;2.00;;;11.00;97.00;;;;;;5057633;28;20188;-71
2021/05/31 01:45:42;;;;;;;1.50;1.50;;;11.00;97.20;;;;;;5048586;28;20217;-72
2021/05/31 01:48:12;;;;;;;2.00;2.00;;;11.00;97.10;;;;;;5049011;28;20201;-71
2021/05/31 01:50:39;;;;;;;2.08;2.00;;;11.00;97.20;;;;;;5049696;28;20183;-72
2021/05/31 01:53:05;;;;;;;2.22;2.13;;;11.00;97.20;;;;;;5051955;28;20171;-72
2021/05/31 01:55:32;;;;;;;1.98;1.88;;;11.00;97.10;;;;;;5045683;28;20194;-72
2021/05/31 01:57:59;;;;;;;2.13;2.10;;;11.00;96.80;;;;;;5054045;28;20749;-72
2021/05/31 02:00:25;;;;;;;2.28;2.17;;;11.10;96.80;;;;;;5048744;28;20226;-72
2021/05/31 02:02:52;;;;;;;2.00;1.90;;;11.10;96.80;;;;;;5049941;28;20241;-72
2021/05/31 02:05:17;;;;;;;2.00;1.90;;;11.10;96.40;;;;;;5048367;28;20218;-71
2021/05/31 02:07:44;;;;;;;2.15;1.98;;;11.00;96.20;;;;;;5050317;28;20188;-71
2021/05/31 02:10:11;;;;;;;2.10;1.90;;;11.10;96.30;;;;;;5048235;28;20236;-70
2021/05/31 02:13:08;;;;;;;1.90;1.80;;;11.10;96.40;;;;;;5051027;28;20195;-72
2021/05/31 02:15:47;;;;;;;1.65;1.65;;;11.10;95.60;;;;;;5049720;28;20257;-70
2021/05/31 02:18:27;;;;;;;5.38;2.08;;;11.10;96.20;;;;;;5048832;28;20176;-71
2021/05/31 02:21:03;;;;;;;1.92;1.90;;;11.20;96.20;;;;;;5047007;28;20194;-71
2021/05/31 02:23:30;;;;;;;2.45;2.25;;;11.10;95.90;;;;;;5049080;28;20175;-71
2021/05/31 02:25:57;;;;;;;1.70;1.60;;;11.10;96.00;;;;;;5045763;28;20251;-71
2021/05/31 02:28:23;;;;;;;2.47;2.38;;;11.10;95.90;;;;;;5048048;28;20614;-71
2021/05/31 02:30:49;;;;;;;1.95;1.88;;;11.20;96.10;;;;;;5044292;28;20219;-71
2021/05/31 02:33:15;;;;;;;1.70;1.70;;;11.10;96.00;;;;;;5048393;28;20253;-71
2021/05/31 02:35:41;;;;;;;2.20;2.10;;;11.20;96.00;;;;;;5053376;28;20650;-71
2021/05/31 02:38:07;;;;;;;2.15;2.05;;;11.20;96.00;;;;;;5047748;28;20172;-71
2021/05/31 02:40:35;;;;;;;2.05;1.95;;;11.20;96.00;;;;;;5055697;28;20577;-71
2021/05/31 02:43:05;;;;;;;1.80;1.80;;;11.20;95.70;;;;;;5051020;28;20191;-71
2021/05/31 02:45:31;;;;;;;1.90;1.83;;;11.20;95.80;;;;;;5040101;28;20708;-71
2021/05/31 02:47:58;;;;;;;3.25;2.10;;;11.20;95.80;;;;;;5049491;28;20190;-71
2021/05/31 02:50:27;;;;;;;2.03;1.92;;;11.20;96.00;;;;;;5047417;28;20310;-71
2021/05/31 02:52:53;;;;;;;2.13;2.03;;;11.20;95.90;;;;;;5049715;28;20198;-70
2021/05/31 02:55:22;;;;;;;2.20;2.10;;;11.20;95.90;;;;;;5044337;28;20332;-70
2021/05/31 02:57:49;;;;;;;1.90;1.90;;;11.20;96.10;;;;;;5051064;28;20644;-71
2021/05/31 03:00:17;;;;;;;1.98;1.88;;;11.10;96.10;;;;;;5048283;28;20809;-71
2021/05/31 03:02:44;;;;;;;2.70;2.58;;;11.10;95.80;;;;;;5046924;28;20620;-73
2021/05/31 03:05:31;;;;;;;1.77;1.75;;;11.10;95.90;;;;;;5044380;28;20298;-71
2021/05/31 03:07:58;;;;;;;2.15;1.75;;;11.10;95.90;;;;;;5045200;28;20172;-72
2021/05/31 03:10:25;;;;;;;1.77;1.70;;;11.10;96.00;;;;;;5053064;28;20245;-72
2021/05/31 03:12:51;;;;;;;2.22;2.13;;;11.10;95.90;;;;;;5046119;28;20850;-72
2021/05/31 03:15:18;;;;;;;2.08;1.98;;;11.10;95.80;;;;;;5048068;28;20207;-72
2021/05/31 03:17:48;;;;;;;2.08;2.00;;;11.10;96.00;;;;;;5075418;28;20180;-72
2021/05/31 03:20:15;;;;;;;2.15;2.05;;;11.10;95.80;;;;;;5044595;28;20179;-71
2021/05/31 03:22:41;;;;;;;2.10;2.10;;;11.00;95.90;;;;;;5044675;28;20192;-71
2021/05/31 03:25:08;;;;;;;2.28;2.17;;;11.00;95.90;;;;;;5046993;28;20199;-71
2021/05/31 03:27:34;;;;;;;1.90;1.90;;;11.00;96.20;;;;;;5044421;28;20183;-71
2021/05/31 03:30:00;;;;;;;3.15;1.85;;;11.00;95.70;;;;;;5046200;28;20695;-72
2021/05/31 03:32:25;;;;;;;2.65;2.40;;;11.00;95.70;;;;;;5051686;28;20598;-71
2021/05/31 03:34:51;;;;;;;1.90;1.88;;;11.00;95.80;;;;;;5045775;28;20639;-71
2021/05/31 03:37:17;;;;;;;2.28;2.17;;;11.00;95.90;;;;;;5046814;28;20172;-72
2021/05/31 03:39:43;;;;;;;2.08;1.98;;;11.00;95.80;;;;;;5044453;28;20188;-72
2021/05/31 03:42:09;;;;;;;2.40;2.28;;;11.00;95.70;;;;;;5044657;28;20206;-71
2021/05/31 03:44:35;;;;;;;2.28;2.17;;;11.00;95.90;;;;;;5047168;28;20671;-72
2021/05/31 03:47:01;;;;;;;1.98;1.98;;;11.00;95.90;;;;;;5047728;28;20182;-71
2021/05/31 03:49:26;;;;;;;2.60;2.40;;;11.00;95.80;;;;;;5047041;28;20664;-71
2021/05/31 03:51:52;;;;;;;2.40;2.17;;;11.00;95.70;;;;;;5043304;28;20759;-72
2021/05/31 03:54:18;;;;;;;2.47;2.28;;;11.00;95.70;;;;;;5047205;28;20720;-71
2021/05/31 03:56:43;;;;;;;2.35;2.30;;;11.00;96.00;;;;;;5045704;28;20270;-71
2021/05/31 03:59:09;;;;;;;2.38;2.28;;;11.00;95.90;;;;;;5045416;28;20177;-73
2021/05/31 04:01:35;;;;;;;2.20;2.10;;;11.00;96.00;;;;;;5045066;28;20664;-70
2021/05/31 04:04:01;;;;;;;2.42;2.33;;;11.00;95.90;;;;;;5047332;28;20182;-73
2021/05/31 04:11:55;;;;;;;2.65;2.55;;;11.10;95.60;;;;;;5044501;28;20746;-74
2021/05/31 04:14:21;;;;;;;4.53;3.10;;;11.10;95.80;;;;;;5045733;28;20229;-73
2021/05/31 04:16:53;;;;;;;3.00;2.80;;;11.10;95.50;;;;;;5042286;28;20191;-73
2021/05/31 04:19:21;;;;;;;2.63;2.45;;;11.10;95.40;;;;;;5046654;28;20179;-73
2021/05/31 04:21:49;;;;;;;2.75;2.55;;;11.00;95.30;;;;;;5045881;28;20185;-72
2021/05/31 04:24:15;;;;;;;2.22;2.13;;;11.00;95.40;;;;;;5046786;28;20180;-72
2021/05/31 04:26:42;;;;;;;2.80;2.70;;;11.00;95.40;;;;;;5047929;28;20679;-71
2021/05/31 04:29:09;;;;;;;2.67;2.58;;;11.00;95.40;;;;;;5048472;28;20210;-71
2021/05/31 04:31:37;;;;;;;2.42;2.33;;;11.00;95.30;;;;;;5049027;28;20188;-71
2021/05/31 04:34:06;;;;;;;2.92;2.83;;;11.00;95.30;;;;;;5047367;28;20183;-70
2021/05/31 04:36:33;;;;;;;3.20;2.80;;;11.00;95.30;;;;;;5043338;28;20191;-72
2021/05/31 04:39:00;;;;;;;2.20;2.10;;;11.00;95.20;;;;;;5046846;28;20191;-71
2021/05/31 04:41:26;;;;;;;2.08;1.98;;;11.00;95.10;;;;;;5048705;28;20187;-70
2021/05/31 04:43:52;;;;;;;2.95;2.85;;;10.90;95.00;;;;;;5048506;28;20179;-71
2021/05/31 04:46:18;;;;;;;3.83;3.10;;;10.90;95.20;;;;;;5048729;28;20214;-72
2021/05/31 04:48:44;;;;;;;2.47;2.38;;;11.00;95.30;;;;;;5051990;28;20180;-71
2021/05/31 04:51:10;;;;;;;2.97;2.72;;;11.00;95.10;;;;;;5049241;28;20184;-71
2021/05/31 04:53:35;;;;;;;2.88;2.28;;;11.00;94.90;;;;;;5048837;28;20779;-71
2021/05/31 04:56:04;;;;;;;2.70;2.50;;;11.10;94.80;;;;;;5047608;28;20188;-72
2021/05/31 04:58:30;;;;;;;2.53;2.33;;;11.10;94.70;;;;;;5048775;28;20180;-70
2021/05/31 05:00:56;;;;;;;2.67;2.55;;;11.20;94.00;;;;;;5049523;28;20556;-72
2021/05/31 05:03:21;;;;;;;2.92;2.72;;;11.20;94.40;;;;;;5050335;28;20258;-72
2021/05/31 05:05:48;;;;;;;3.10;2.83;;;11.30;94.30;;;;;;5050505;28;20222;-72
2021/05/31 05:08:15;;;;;;;3.42;3.15;;;11.30;94.10;;;;;;5050691;28;20236;-72
2021/05/31 05:10:41;;;;;;;2.63;2.40;;;11.40;93.80;;;;;;5049965;28;20614;-72
2021/05/31 05:13:07;;;;;;;3.13;2.92;;;11.40;93.40;;;;;;5050401;28;20180;-72
2021/05/31 05:15:33;;;;;;;2.70;2.60;;;11.30;93.10;;;;;;5049956;28;20231;-72
2021/05/31 05:17:59;;;;;;;3.28;3.08;;;11.30;93.30;;;;;;5044471;28;20179;-71
2021/05/31 05:20:27;;;;;;;3.10;2.90;;;11.30;93.40;;;;;;5049976;28;20187;-70
2021/05/31 05:22:54;;;;;;;2.97;2.83;;;11.40;93.50;;;;;;5050484;28;20270;-69
2021/05/31 05:25:20;;;;;;;2.55;2.45;;;11.40;93.50;;;;;;5050536;28;20816;-69
2021/05/31 05:27:49;;;;;;;3.05;2.85;;;11.40;93.80;;;;;;5050349;28;20180;-71
2021/05/31 05:30:20;;;;;;;2.83;2.72;;;11.50;93.60;;;;;;5050976;28;20586;-71
2021/05/31 05:32:49;;;;;;;2.78;2.58;;;11.60;93.10;;;;;;5050935;28;20244;-71
2021/05/31 05:35:23;;;;;;;2.30;2.20;;;11.70;92.90;;;;;;5044720;28;20176;-71
2021/05/31 05:47:59;;;;;;;3.05;2.85;;;12.10;91.50;;;;;;5049794;28;20183;-71
2021/05/31 05:50:25;;;;;;;2.47;2.47;;;12.20;90.90;;;;;;5050203;28;20244;-71
2021/05/31 05:52:51;;;;;;;2.50;2.40;;;12.30;90.50;;;;;;5050627;28;20706;-72
2021/05/31 05:55:17;;;;;;;2.65;2.55;;;12.40;90.30;;;;;;5050496;28;20187;-70
2021/05/31 05:57:44;;;;;;;2.45;2.35;;;12.50;90.50;;;;;;5044527;28;20682;-70
2021/05/31 06:00:16;;;;;;;2.83;2.63;;;12.60;90.00;;;;;;5050465;28;20178;-71
2021/05/31 06:02:41;;;;;;;2.67;2.58;;;12.70;89.00;;;;;;5043677;28;20256;-70
2021/05/31 06:05:08;;;;;;;2.28;2.22;;;12.80;88.50;;;;;;5050363;28;20204;-71
2021/05/31 06:07:35;;;;;;;3.55;2.67;;;12.80;88.10;;;;;;5050301;28;20184;-71
2021/05/31 06:10:01;;;;;;;2.08;2.08;;;12.90;87.70;;;;;;5049925;28;20164;-71
2021/05/31 06:12:27;;;;;;;2.63;2.53;;;12.90;87.80;;;;;;5049742;28;20183;-71
2021/05/31 06:14:54;;;;;;;2.80;2.60;;;13.10;87.90;;;;;;5049883;28;20222;-70
2021/05/31 06:17:19;;;;;;;2.28;2.17;;;13.20;87.50;;;;;;5049929;28;20800;-70
2021/05/31 06:19:45;;;;;;;3.17;2.38;;;13.30;87.00;;;;;;5050143;28;20243;-71
2021/05/31 06:22:11;;;;;;;2.70;2.58;;;13.20;86.40;;;;;;5049995;28;20176;-70
2021/05/31 06:24:37;;;;;;;2.42;2.33;;;13.10;86.80;;;;;;5049700;28;20196;-71
2021/05/31 06:27:04;;;;;;;2.67;2.58;;;13.00;86.90;;;;;;5049818;28;20176;-69
2021/05/31 06:29:29;;;;;;;2.03;1.92;;;13.00;86.60;;;;;;5049653;28;20175;-71
2021/05/31 06:31:55;;;;;;;1.95;1.95;;;13.00;86.40;;;;;;5049757;28;20566;-70
2021/05/31 06:34:21;;;;;;;2.50;2.30;;;13.00;86.60;;;;;;5049628;28;20179;-71
2021/05/31 06:36:49;;;;;;;2.28;2.17;;;13.10;86.50;;;;;;5049368;28;20171;-70
2021/05/31 06:39:15;;;;;;;2.00;2.00;;;13.20;86.20;;;;;;5047603;28;20195;-70
2021/05/31 06:41:41;;;;;;;1.90;1.83;;;13.30;86.50;;;;;;5049519;28;20712;-71
2021/05/31 06:44:07;;;;;;;2.30;2.17;;;13.50;86.10;;;;;;5049576;28;20197;-70
2021/05/31 06:46:33;;;;;;;2.13;2.10;;;13.70;85.90;;;;;;5049248;28;20294;-70
2021/05/31 06:48:59;;;;;;;1.92;1.80;;;13.90;84.80;;;;;;5049358;28;20167;-70
2021/05/31 06:51:26;;;;;;;2.25;2.15;;;14.10;84.40;;;;;;5049448;28;20176;-69
2021/05/31 06:53:52;;;;;;;2.03;1.92;;;14.30;82.30;;;;;;5049207;28;20659;-70
2021/05/31 06:56:19;;;;;;;2.00;1.90;;;14.40;82.80;;;;;;5048236;28;20188;-70
2021/05/31 06:58:46;;;;;;;1.90;1.90;;;14.60;82.90;;;;;;5049087;28;20206;-69
2021/05/31 07:01:11;;;;;;;1.80;1.80;;;14.80;83.40;;;;;;5048847;28;20180;-70
2021/05/31 07:03:38;;;;;;;2.83;2.67;;;14.90;83.00;;;;;;5049012;28;20179;-71
2021/05/31 07:06:05;;;;;;;2.72;2.53;;;15.00;82.40;;;;;;5048390;28;20215;-70
2021/05/31 07:08:31;;;;;;;2.42;2.42;;;15.00;82.20;;;;;;5049041;28;20183;-71
2021/05/31 07:10:59;;;;;;;1.83;1.80;;;15.00;81.70;;;;;;5048955;28;20183;-70
2021/05/31 07:13:29;;;;;;;2.40;2.28;;;15.00;81.30;;;;;;5048835;28;20172;-71
2021/05/31 07:15:58;;;;;;;3.10;2.90;;;15.00;81.80;;;;;;5049158;28;20659;-70
2021/05/31 07:18:24;;;;;;;2.50;2.40;;;15.20;82.10;;;;;;5048888;28;20196;-69
2021/05/31 07:20:52;;;;;;;2.00;2.00;;;15.10;80.40;;;;;;5049121;28;20183;-70
2021/05/31 07:23:19;;;;;;;2.58;2.47;;;15.10;80.60;;;;;;5049043;28;20233;-69
2021/05/31 07:25:46;;;;;;;2.13;2.03;;;15.00;80.50;;;;;;5048809;28;20253;-69
2021/05/31 07:28:12;;;;;;;2.17;2.08;;;15.00;80.20;;;;;;5048473;28;20303;-70
2021/05/31 07:30:38;;;;;;;2.35;2.25;;;15.00;80.70;;;;;;5048419;28;20266;-70
2021/05/31 07:33:04;;;;;;;2.42;2.13;;;15.00;80.70;;;;;;5048423;28;20303;-71
2021/05/31 07:35:30;;;;;;;2.33;2.00;;;15.10;80.00;;;;;;5048913;28;20241;-70
2021/05/31 07:37:56;;;;;;;2.33;2.20;;;15.20;80.50;;;;;;5048567;28;20176;-71
2021/05/31 07:40:24;;;;;;;6.43;2.08;;;15.30;79.80;;;;;;5048692;28;20206;-71
2021/05/31 07:42:53;;;;;;;1.80;1.80;;;15.40;78.90;;;;;;5048950;28;20191;-71
2021/05/31 07:45:18;;;;;;;1.98;1.95;;;15.60;78.20;;;;;;5050985;28;20662;-71
2021/05/31 07:47:44;;;;;;;1.65;1.60;;;15.80;78.20;;;;;;5048695;28;20254;-71
2021/05/31 07:50:11;;;;;;;2.28;2.22;;;15.80;77.90;;;;;;5048742;28;20613;-71
2021/05/31 07:52:37;;;;;;;1.75;1.65;;;15.80;77.40;;;;;;5048528;28;20263;-71
2021/05/31 07:55:07;;;;;;;1.70;1.70;;;16.00;77.40;;;;;;5048262;28;20184;-70
2021/05/31 07:57:35;;;;;;;2.00;2.00;;;16.10;77.30;;;;;;5047222;28;20210;-69
2021/05/31 08:00:03;;;;;;;3.20;2.00;;;16.20;76.60;;;;;;5048285;28;20667;-70
2021/05/31 08:02:28;;;;;;;1.65;1.65;;;16.40;76.40;;;;;;5048805;28;20168;-71
2021/05/31 08:05:04;;;;;;;1.80;1.65;;;16.60;76.40;;;;;;5048102;28;20210;-71
2021/05/31 08:07:30;;;;;;;1.88;1.88;;;16.70;74.80;;;;;;5048248;28;20190;-70
2021/05/31 08:09:56;;;;;;;1.80;1.70;;;16.50;74.80;;;;;;5047422;28;20183;-70
2021/05/31 08:12:23;;;;;;;1.77;1.67;;;16.50;74.90;;;;;;5048336;28;20241;-70
2021/05/31 08:14:50;;;;;;;2.08;1.90;;;16.60;75.00;;;;;;5045591;28;20195;-68
2021/05/31 08:17:19;;;;;;;1.42;1.42;;;16.60;74.90;;;;;;5046142;28;20179;-69
2021/05/31 08:19:44;;;;;;;1.50;1.50;;;16.50;74.90;;;;;;5048788;28;20187;-69
2021/05/31 08:22:10;;;;;;;1.65;1.65;;;16.70;75.40;;;;;;5051118;28;20187;-69
2021/05/31 08:24:36;;;;;;;1.65;1.55;;;16.90;75.50;;;;;;5050632;28;20276;-70
2021/05/31 08:27:03;;;;;;;1.40;1.40;;;17.10;75.10;;;;;;5050343;28;20673;-69
2021/05/31 08:29:28;;;;;;;1.67;1.67;;;17.40;73.90;;;;;;5050544;28;20187;-70
2021/05/31 08:31:54;;;;;;;1.55;1.50;;;17.60;72.90;;;;;;5048142;28;20695;-69
2021/05/31 08:34:20;;;;;;;1.73;1.60;;;17.90;72.10;;;;;;5050353;28;20188;-69
2021/05/31 08:36:46;;;;;;;2.10;2.00;;;18.00;71.40;;;;;;5050354;28;20255;-70
2021/05/31 08:39:12;;;;;;;1.55;1.55;;;18.20;71.70;;;;;;5049475;28;20262;-69
2021/05/31 08:41:39;;;;;;;9.38;1.60;;;18.30;71.60;;;;;;5048755;28;20267;-69
2021/05/31 08:44:05;;;;;;;1.27;1.27;;;18.40;71.40;;;;;;5045114;28;20218;-70
2021/05/31 08:46:31;;;;;;;2.15;1.85;;;18.40;70.00;;;;;;5048814;28;20207;-68
2021/05/31 08:48:58;;;;;;;3.95;2.15;;;18.40;70.40;;;;;;5049471;28;20229;-69
2021/05/31 08:51:25;;;;;;;1.60;1.60;;;18.30;70.30;;;;;;5047434;28;20183;-70
2021/05/31 08:53:51;;;;;;;2.13;2.13;;;18.10;71.20;;;;;;5049474;28;20215;-69
2021/05/31 08:56:17;;;;;;;2.33;2.10;;;18.00;71.80;;;;;;5049343;28;20211;-69
2021/05/31 08:58:44;;;;;;;2.30;1.88;;;18.00;71.80;;;;;;5042985;28;20628;-69
2021/05/31 09:01:09;;;;;;;1.52;1.52;;;18.10;72.60;;;;;;5052424;28;20856;-70
2021/05/31 09:03:35;;;;;;;2.10;2.10;;;18.20;72.20;;;;;;5051142;28;20182;-70
2021/05/31 09:06:04;;;;;;;1.73;1.73;;;18.20;71.00;;;;;;5048221;28;20222;-69
2021/05/31 09:08:30;;;;;;;2.03;2.03;;;18.20;71.30;;;;;;5048521;28;20186;-69
2021/05/31 09:11:02;;;;;;;1.60;1.60;;;18.10;71.40;;;;;;5047618;28;20210;-70
2021/05/31 09:13:43;;;;;;;2.03;1.85;;;18.10;71.70;;;;;;5050212;28;20609;-70
2021/05/31 09:16:13;;;;;;;4.00;2.22;;;17.90;71.10;;;;;;5048502;28;20230;-70
2021/05/31 09:18:50;;;;;;;2.10;2.00;;;17.80;71.90;;;;;;5048104;28;20180;-69
2021/05/31 09:21:36;;;;;;;1.80;1.80;;;17.70;72.00;;;;;;5056045;28;20195;-70
2021/05/31 09:24:06;;;;;;;1.63;1.63;;;17.80;71.00;;;;;;5058956;28;20194;-71
2021/05/31 09:26:45;;;;;;;1.67;1.67;;;17.60;71.40;;;;;;5057810;28;20766;-70
2021/05/31 09:29:11;;;;;;;1.83;1.83;;;17.70;72.50;;;;;;5056125;28;20175;-70
2021/05/31 09:31:37;;;;;;;2.05;2.05;;;17.70;71.00;;;;;;5058228;28;20183;-70
2021/05/31 09:34:12;;;;;;;1.50;1.50;;;17.80;71.20;;;;;;5056356;28;20724;-70
2021/05/31 09:37:07;;;;;;;1.45;1.35;;;18.00;70.90;;;;;;5053636;28;20183;-70
2021/05/31 09:39:40;;;;;;;1.60;1.60;;;18.20;70.30;;;;;;5005556;28;20201;-69
2021/05/31 09:42:12;;;;;;;1.75;1.60;;;18.40;68.60;;;;;;5005049;28;20197;-68
2021/05/31 09:44:39;;;;;;;5.65;1.55;;;18.40;69.80;;;;;;5003987;28;20224;-69
2021/05/31 09:47:05;;;;;;;1.27;1.27;;;18.50;69.50;;;;;;5006673;28;20189;-68
2021/05/31 09:49:31;;;;;;;1.52;1.52;;;18.60;69.40;;;;;;5005525;28;20744;-68
2021/05/31 09:52:00;;;;;;;1.30;1.30;;;18.50;69.00;;;;;;5005755;28;20188;-68
2021/05/31 09:54:47;;;;;;;1.50;1.50;;;18.50;69.60;;;;;;5003871;28;20670;-68
2021/05/31 09:57:22;;;;;;;1.10;1.10;;;18.30;68.40;;;;;;5005950;28;20204;-69
2021/05/31 09:59:56;;;;;;;1.33;1.33;;;18.20;68.80;;;;;;5006666;28;20184;-69
2021/05/31 10:10:35;;;;;;;1.42;1.40;;;18.40;68.80;;;;;;4936994;29;20747;-68
2021/05/31 10:13:02;;;;;;;2.90;1.35;;;18.60;68.80;;;;;;4937131;28;20730;-68
2021/05/31 10:15:30;;;;;;;1.30;1.30;;;18.80;68.70;;;;;;4942975;28;20214;-69
2021/05/31 10:17:58;;;;;;;1.35;1.35;;;18.80;67.20;;;;;;4955248;28;20210;-68
2021/05/31 10:20:27;;;;;;;1.27;1.27;;;18.70;67.40;;;;;;4958369;28;20634;-69
2021/05/31 10:22:53;;;;;;;1.23;1.20;;;18.70;67.00;;;;;;4958261;28;20198;-68
2021/05/31 10:25:22;;;;;;;1.20;1.20;;;18.70;66.80;;;;;;4956778;28;20218;-70
2021/05/31 10:27:53;;;;;;;2.25;1.20;;;18.80;66.90;;;;;;4957978;28;20295;-68
2021/05/31 10:30:20;;;;;;;0.90;0.90;;;19.10;67.70;;;;;;4953856;28;20194;-69
2021/05/31 10:32:47;;;;;;;1.10;1.10;;;19.40;66.40;;;;;;4957142;28;20687;-70
2021/05/31 10:35:21;;;;;;;1.13;1.13;;;19.70;66.10;;;;;;4953675;28;20195;-69
2021/05/31 10:37:57;;;;;;;1.23;1.23;;;19.90;65.60;;;;;;4954041;28;20660;-69
2021/05/31 10:40:34;;;;;;;0.85;0.85;;;20.10;64.40;;;;;;4953170;28;20944;-69
2021/05/31 10:43:08;;;;;;;4.20;1.40;;;20.10;64.30;;;;;;5032074;28;20198;-69
2021/05/31 10:45:34;;;;;;;0.93;0.93;;;20.30;63.50;;;;;;5053619;28;20219;-69
2021/05/31 10:48:18;;;;;;;1.00;1.00;;;20.50;64.20;;;;;;5055119;28;20183;-69
2021/05/31 10:50:49;;;;;;;1.00;1.00;;;21.00;62.60;;;;;;5055810;28;20207;-70
2021/05/31 10:53:30;;;;;;;2.58;1.02;;;21.20;62.30;;;;;;5055875;28;20190;-69
2021/05/31 10:56:11;;;;;;;1.00;0.90;;;21.30;62.00;;;;;;5058033;28;20191;-69
2021/05/31 10:58:48;;;;;;;1.00;1.00;;;21.30;62.00;;;;;;5057793;28;20187;-69
2021/05/31 11:01:18;;;;;;;0.95;0.95;;;21.40;62.00;;;;;;5054306;28;20184;-68
2021/05/31 11:03:59;;;;;;;0.90;0.90;;;21.60;62.80;;;;;;5053177;28;20183;-68
2021/05/31 11:06:26;;;;;;;1.00;1.00;;;21.70;61.60;;;;;;5052134;28;20332;-68
2021/05/31 11:08:57;;;;;;;1.73;0.82;;;21.80;61.50;;;;;;5055616;28;20614;-68
2021/05/31 11:11:51;;;;;;;0.90;0.90;;;21.70;61.20;;;;;;5055597;28;20180;-69
2021/05/31 11:14:38;;;;;;;1.10;1.10;;;21.60;61.60;;;;;;5051221;28;20211;-70
2021/05/31 11:17:16;;;;;;;1.00;1.00;;;21.60;61.60;;;;;;5054629;28;20207;-71
2021/05/31 11:19:47;;;;;;;0.98;0.98;;;22.00;61.00;;;;;;5048164;28;20186;-70
2021/05/31 11:22:17;;;;;;;0.77;0.77;;;22.30;60.40;;;;;;5051583;28;20192;-70
2021/05/31 11:24:55;;;;;;;1.10;1.10;;;22.50;59.20;;;;;;5045686;28;20704;-69
2021/05/31 11:27:34;;;;;;;4.22;1.10;;;22.90;60.00;;;;;;5050700;28;20198;-70
2021/05/31 11:30:01;;;;;;;1.00;1.00;;;23.10;59.90;;;;;;5044237;28;20179;-70
2021/05/31 11:32:27;;;;;;;1.85;0.98;;;23.20;59.50;;;;;;5047726;28;20210;-70
2021/05/31 11:34:58;;;;;;;1.05;0.80;;;23.10;58.50;;;;;;5046318;28;20189;-70
2021/05/31 11:37:27;;;;;;;0.90;0.90;;;22.70;59.10;;;;;;5042590;28;20183;-70
2021/05/31 11:39:53;;;;;;;0.77;0.77;;;22.20;59.60;;;;;;5047442;28;20195;-69
2021/05/31 11:42:20;;;;;;;1.00;1.00;;;21.80;60.30;;;;;;5047025;28;20175;-70
2021/05/31 11:44:51;;;;;;;0.82;0.82;;;21.50;60.80;;;;;;5046863;28;20214;-70
2021/05/31 11:47:21;;;;;;;2.08;0.90;;;21.00;62.40;;;;;;5045366;28;20730;-69
2021/05/31 11:49:47;;;;;;;0.60;0.60;;;20.80;62.60;;;;;;5048186;28;20183;-69
2021/05/31 11:52:13;;;;;;;0.50;0.50;;;20.60;63.00;;;;;;5051787;28;20191;-69
2021/05/31 11:54:41;;;;;;;0.70;0.50;;;20.40;63.30;;;;;;5045505;28;20270;-69
2021/05/31 11:57:09;;;;;;;0.70;0.70;;;20.30;63.30;;;;;;5035495;28;20258;-69
2021/05/31 11:59:48;;;;;;;0.57;0.57;;;20.40;63.70;;;;;;5045038;28;20249;-69
2021/05/31 12:02:17;;;;;;;0.60;0.60;;;20.40;63.80;;;;;;5046735;28;20668;-68
2021/05/31 12:04:44;;;;;;;0.70;0.70;;;20.40;64.10;;;;;;5047967;28;20237;-69
2021/05/31 12:07:16;;;;;;;1.02;0.80;;;20.40;64.00;;;;;;5046423;28;20180;-69
2021/05/31 12:09:44;;;;;;;0.68;0.68;;;20.40;64.40;;;;;;5047952;28;20183;-69
2021/05/31 12:12:14;;;;;;;0.55;0.55;;;20.50;64.50;;;;;;5044433;28;20191;-69
2021/05/31 12:14:46;;;;;;;0.70;0.70;;;20.80;64.90;;;;;;5048160;28;20226;-69
2021/05/31 12:17:13;;;;;;;2.35;0.70;;;21.00;63.10;;;;;;5047031;28;20671;-68
2021/05/31 12:19:39;;;;;;;3.92;0.70;;;21.10;62.70;;;;;;5047980;28;20250;-69
2021/05/31 12:22:07;;;;;;;0.65;0.65;;;21.10;62.00;;;;;;5048773;28;20256;-69
2021/05/31 12:24:40;;;;;;;0.50;0.50;;;21.20;61.70;;;;;;5046681;28;20180;-70
2021/05/31 12:27:06;;;;;;;0.82;0.82;;;21.30;62.00;;;;;;5046544;28;20188;-69
2021/05/31 12:29:40;;;;;;;1.38;0.52;;;21.60;62.10;;;;;;5047537;28;20704;-69
2021/05/31 12:32:08;;;;;;;1.63;0.55;;;21.70;60.60;;;;;;5047149;28;20168;-70
2021/05/31 12:34:34;;;;;;;0.60;0.60;;;22.00;60.70;;;;;;5047647;28;20578;-70
2021/05/31 12:37:02;;;;;;;0.98;0.70;;;22.50;60.60;;;;;;5048026;28;20211;-68
2021/05/31 12:39:28;;;;;;;0.43;0.43;;;23.10;59.00;;;;;;5053349;28;20267;-68
2021/05/31 12:41:55;;;;;;;0.70;0.70;;;23.90;59.40;;;;;;5053796;28;20253;-69
2021/05/31 12:44:22;;;;;;;0.50;0.50;;;24.50;57.80;;;;;;5055128;28;20183;-69
2021/05/31 12:46:48;;;;;;;0.60;0.60;;;24.90;56.40;;;;;;5055847;28;20217;-69
2021/05/31 12:49:15;;;;;;;0.60;0.60;;;25.00;56.40;;;;;;5055859;28;20179;-70
2021/05/31 12:51:53;;;;;;;1.65;0.50;;;24.80;57.10;;;;;;5055108;28;20807;-69
2021/05/31 12:54:19;;;;;;;0.40;0.40;;;24.70;57.10;;;;;;5055779;28;20285;-68
2021/05/31 12:56:46;;;;;;;0.40;0.40;;;24.70;57.00;;;;;;5056419;28;20191;-69
2021/05/31 12:59:12;;;;;;;0.40;0.40;;;24.60;57.50;;;;;;5055423;28;20176;-68
2021/05/31 13:01:42;;;;;;;0.60;0.60;;;24.70;56.80;;;;;;5055950;28;20179;-69
2021/05/31 13:04:08;;;;;;;0.43;0.43;;;25.00;57.50;;;;;;5057019;28;20183;-69
2021/05/31 13:06:40;;;;;;;0.50;0.50;;;25.50;55.60;;;;;;5058722;28;20242;-70
2021/05/31 13:09:20;;;;;;;0.40;0.40;;;26.20;54.20;;;;;;5058050;28;20297;-69
2021/05/31 13:11:46;;;;;;;0.50;0.50;;;27.20;52.60;;;;;;5058719;28;20188;-68
2021/05/31 13:14:23;;;;;;;0.50;0.50;;;27.70;52.60;;;;;;5059827;28;20555;-69
2021/05/31 13:16:58;;;;;;;0.50;0.50;;;27.80;53.10;;;;;;5059616;28;20198;-68
2021/05/31 13:19:29;;;;;;;0.75;0.55;;;27.90;53.70;;;;;;5060483;28;20648;-68